sensor_id;sensor_type;location;lat;lon;timestamp;pressure;altitude;pressure_sealevel;temperature;humidity
29433;BME280;16405;53.964;13.448;2022-09-20T00:01:34;101080.53;;;7.67;100.00
29433;BME280;16405;53.964;13.448;2022-09-20T00:04:01;101081.50;;;7.63;100.00
29433;BME280;16405;53.964;13.448;2022-09-20T00:06:38;101082.50;;;7.58;100.00
29433;BME280;16405;53.964;13.448;2022-09-20T00:09:04;101077.19;;;7.60;100.00
29433;BME280;16405;53.964;13.448;2022-09-20T00:11:41;101075.44;;;7.60;100.00
29433;BME280;16405;53.964;13.448;2022-09-20T00:14:07;101089.53;;;7.56;100.00
29433;BME280;16405;53.964;13.448;2022-09-20T00:16:39;101084.47;;;7.50;100.00
29433;BME280;16405;53.964;13.448;2022-09-20T00:19:15;101098.56;;;7.46;100.00
29433;BME280;16405;53.964;13.448;2022-09-20T00:21:50;101095.13;;;7.44;100.00
29433;BME280;16405;53.964;13.448;2022-09-20T00:24:16;101093.41;;;7.43;100.00
29433;BME280;16405;53.964;13.448;2022-09-20T00:26:42;101098.59;;;7.45;100.00
29433;BME280;16405;53.964;13.448;2022-09-20T00:29:15;101095.91;;;7.48;100.00
29433;BME280;16405;53.964;13.448;2022-09-20T00:31:41;101094.84;;;7.53;100.00
29433;BME280;16405;53.964;13.448;2022-09-20T00:34:09;101098.22;;;7.58;100.00
29433;BME280;16405;53.964;13.448;2022-09-20T00:36:56;101104.31;;;7.59;100.00
29433;BME280;16405;53.964;13.448;2022-09-20T00:39:22;101097.31;;;7.59;100.00
29433;BME280;16405;53.964;13.448;2022-09-20T00:41:48;101098.28;;;7.55;100.00
29433;BME280;16405;53.964;13.448;2022-09-20T00:44:46;101100.19;;;7.50;100.00
29433;BME280;16405;53.964;13.448;2022-09-20T00:47:31;101110.66;;;7.50;100.00
29433;BME280;16405;53.964;13.448;2022-09-20T00:50:13;101108.09;;;7.49;100.00
29433;BME280;16405;53.964;13.448;2022-09-20T00:53:04;101119.41;;;7.49;100.00
29433;BME280;16405;53.964;13.448;2022-09-20T00:55:43;101127.19;;;7.54;100.00
29433;BME280;16405;53.964;13.448;2022-09-20T00:58:11;101125.25;;;7.60;100.00
29433;BME280;16405;53.964;13.448;2022-09-20T01:00:49;101126.91;;;7.63;100.00
29433;BME280;16405;53.964;13.448;2022-09-20T01:03:21;101126.78;;;7.68;100.00
29433;BME280;16405;53.964;13.448;2022-09-20T01:05:51;101127.59;;;7.70;100.00
29433;BME280;16405;53.964;13.448;2022-09-20T01:08:18;101125.75;;;7.73;100.00
29433;BME280;16405;53.964;13.448;2022-09-20T01:10:51;101129.91;;;7.80;100.00
29433;BME280;16405;53.964;13.448;2022-09-20T01:13:20;101128.94;;;7.85;100.00
29433;BME280;16405;53.964;13.448;2022-09-20T01:15:47;101134.13;;;7.86;100.00
29433;BME280;16405;53.964;13.448;2022-09-20T01:18:25;101134.16;;;7.85;100.00
29433;BME280;16405;53.964;13.448;2022-09-20T01:20:59;101136.81;;;7.83;100.00
29433;BME280;16405;53.964;13.448;2022-09-20T01:27:20;101143.66;;;7.89;100.00
29433;BME280;16405;53.964;13.448;2022-09-20T01:30:19;101141.63;;;7.98;100.00
29433;BME280;16405;53.964;13.448;2022-09-20T01:35:46;101149.22;;;8.08;100.00
29433;BME280;16405;53.964;13.448;2022-09-20T01:38:46;101149.78;;;8.19;100.00
29433;BME280;16405;53.964;13.448;2022-09-20T01:41:37;101140.91;;;8.23;100.00
29433;BME280;16405;53.964;13.448;2022-09-20T02:00:10;101153.25;;;8.19;100.00
29433;BME280;16405;53.964;13.448;2022-09-20T02:09:41;101155.91;;;8.18;100.00
29433;BME280;16405;53.964;13.448;2022-09-20T02:12:59;101144.56;;;8.17;100.00
29433;BME280;16405;53.964;13.448;2022-09-20T02:22:26;101144.44;;;8.22;100.00
29433;BME280;16405;53.964;13.448;2022-09-20T02:28:43;101140.03;;;8.22;100.00
29433;BME280;16405;53.964;13.448;2022-09-20T02:31:50;101141.97;;;8.16;100.00
29433;BME280;16405;53.964;13.448;2022-09-20T02:49:32;101146.31;;;7.87;100.00
29433;BME280;16405;53.964;13.448;2022-09-20T02:52:50;101156.41;;;7.71;100.00
29433;BME280;16405;53.964;13.448;2022-09-20T02:56:03;101162.75;;;7.63;100.00
29433;BME280;16405;53.964;13.448;2022-09-20T03:05:52;101184.28;;;7.74;100.00
29433;BME280;16405;53.964;13.448;2022-09-20T03:08:52;101197.09;;;7.85;100.00
29433;BME280;16405;53.964;13.448;2022-09-20T03:14:56;101221.16;;;7.99;100.00
29433;BME280;16405;53.964;13.448;2022-09-20T03:18:06;101210.47;;;8.07;100.00
29433;BME280;16405;53.964;13.448;2022-09-20T03:21:14;101211.84;;;8.18;100.00
29433;BME280;16405;53.964;13.448;2022-09-20T03:27:13;101198.22;;;8.37;100.00
29433;BME280;16405;53.964;13.448;2022-09-20T03:41:49;101182.41;;;8.68;100.00
29433;BME280;16405;53.964;13.448;2022-09-20T03:45:20;101177.91;;;8.72;100.00
29433;BME280;16405;53.964;13.448;2022-09-20T03:52:04;101190.38;;;8.65;100.00
29433;BME280;16405;53.964;13.448;2022-09-20T04:00:51;101191.97;;;8.43;100.00
29433;BME280;16405;53.964;13.448;2022-09-20T04:07:14;101202.59;;;8.36;100.00
29433;BME280;16405;53.964;13.448;2022-09-20T04:22:56;101214.22;;;8.28;100.00
29433;BME280;16405;53.964;13.448;2022-09-20T04:25:40;101212.78;;;8.17;100.00
29433;BME280;16405;53.964;13.448;2022-09-20T04:38:18;101211.25;;;7.77;100.00
29433;BME280;16405;53.964;13.448;2022-09-20T04:41:19;101213.31;;;7.66;100.00
29433;BME280;16405;53.964;13.448;2022-09-20T04:56:47;101251.53;;;7.75;100.00
29433;BME280;16405;53.964;13.448;2022-09-20T04:59:08;101256.53;;;7.84;100.00
29433;BME280;16405;53.964;13.448;2022-09-20T05:08:05;101241.97;;;8.05;100.00
29433;BME280;16405;53.964;13.448;2022-09-20T05:17:23;101250.31;;;8.19;100.00
29433;BME280;16405;53.964;13.448;2022-09-20T05:20:40;101263.25;;;8.26;100.00
29433;BME280;16405;53.964;13.448;2022-09-20T05:30:10;101268.63;;;8.52;100.00
29433;BME280;16405;53.964;13.448;2022-09-20T05:38:50;101276.47;;;8.83;100.00
29433;BME280;16405;53.964;13.448;2022-09-20T05:41:53;101269.19;;;8.92;100.00
29433;BME280;16405;53.964;13.448;2022-09-20T05:44:50;101270.75;;;8.99;100.00
29433;BME280;16405;53.964;13.448;2022-09-20T05:47:43;101280.81;;;9.39;100.00
29433;BME280;16405;53.964;13.448;2022-09-20T05:54:06;101282.03;;;9.56;100.00
29433;BME280;16405;53.964;13.448;2022-09-20T06:03:02;101290.66;;;10.36;100.00
29433;BME280;16405;53.964;13.448;2022-09-20T06:06:15;101296.53;;;11.56;100.00
29433;BME280;16405;53.964;13.448;2022-09-20T06:23:39;101290.66;;;14.31;79.28
29433;BME280;16405;53.964;13.448;2022-09-20T06:26:37;101293.28;;;13.98;82.23
29433;BME280;16405;53.964;13.448;2022-09-20T06:29:32;101317.25;;;18.49;70.87
29433;BME280;16405;53.964;13.448;2022-09-20T06:31:59;101302.78;;;18.14;66.44
29433;BME280;16405;53.964;13.448;2022-09-20T06:34:38;101304.28;;;17.66;68.47
29433;BME280;16405;53.964;13.448;2022-09-20T06:37:18;101327.06;;;19.59;66.70
29433;BME280;16405;53.964;13.448;2022-09-20T06:40:32;101306.59;;;17.17;67.59
29433;BME280;16405;53.964;13.448;2022-09-20T06:43:46;101314.84;;;16.43;70.54
29433;BME280;16405;53.964;13.448;2022-09-20T06:46:26;101318.19;;;15.09;73.95
29433;BME280;16405;53.964;13.448;2022-09-20T06:49:05;101317.63;;;14.22;77.46
29433;BME280;16405;53.964;13.448;2022-09-20T06:52:18;101309.88;;;13.30;81.43
29433;BME280;16405;53.964;13.448;2022-09-20T06:55:25;101336.50;;;12.70;85.13
29433;BME280;16405;53.964;13.448;2022-09-20T06:57:54;101334.78;;;12.29;89.20
29433;BME280;16405;53.964;13.448;2022-09-20T07:00:42;101325.72;;;11.94;92.01
29433;BME280;16405;53.964;13.448;2022-09-20T07:03:08;101340.78;;;11.70;94.75
29433;BME280;16405;53.964;13.448;2022-09-20T07:05:37;101340.66;;;11.51;96.40
29433;BME280;16405;53.964;13.448;2022-09-20T07:08:03;101341.25;;;11.37;97.92
29433;BME280;16405;53.964;13.448;2022-09-20T07:10:41;101343.88;;;11.37;100.00
29433;BME280;16405;53.964;13.448;2022-09-20T07:13:18;101342.03;;;11.39;100.00
29433;BME280;16405;53.964;13.448;2022-09-20T07:15:45;101352.97;;;11.30;100.00
29433;BME280;16405;53.964;13.448;2022-09-20T07:18:19;101351.78;;;11.37;100.00
29433;BME280;16405;53.964;13.448;2022-09-20T07:21:06;101355.13;;;11.85;100.00
29433;BME280;16405;53.964;13.448;2022-09-20T07:23:55;101358.06;;;11.99;100.00
29433;BME280;16405;53.964;13.448;2022-09-20T07:26:28;101355.38;;;12.21;100.00
29433;BME280;16405;53.964;13.448;2022-09-20T07:29:06;101364.00;;;12.45;100.00
29433;BME280;16405;53.964;13.448;2022-09-20T07:31:41;101371.28;;;13.73;97.50
29433;BME280;16405;53.964;13.448;2022-09-20T07:34:18;101376.84;;;17.42;79.99
29433;BME280;16405;53.964;13.448;2022-09-20T07:37:07;101374.22;;;18.99;69.75
29433;BME280;16405;53.964;13.448;2022-09-20T07:39:56;101374.09;;;19.37;67.00
29433;BME280;16405;53.964;13.448;2022-09-20T07:42:24;101383.66;;;21.04;63.24
29433;BME280;16405;53.964;13.448;2022-09-20T07:44:50;101380.63;;;22.38;59.77
29433;BME280;16405;53.964;13.448;2022-09-20T07:47:26;101385.44;;;23.75;56.39
29433;BME280;16405;53.964;13.448;2022-09-20T07:50:04;101388.38;;;24.30;54.63
29433;BME280;16405;53.964;13.448;2022-09-20T07:52:34;101381.69;;;22.25;56.27
29433;BME280;16405;53.964;13.448;2022-09-20T07:55:10;101382.28;;;20.42;59.81
29433;BME280;16405;53.964;13.448;2022-09-20T07:57:46;101384.03;;;18.47;64.22
29433;BME280;16405;53.964;13.448;2022-09-20T08:00:12;101395.09;;;17.48;67.64
29433;BME280;16405;53.964;13.448;2022-09-20T08:02:40;101396.38;;;16.56;70.77
29433;BME280;16405;53.964;13.448;2022-09-20T08:05:06;101392.28;;;16.22;72.02
29433;BME280;16405;53.964;13.448;2022-09-20T08:07:44;101409.22;;;17.63;71.15
29433;BME280;16405;53.964;13.448;2022-09-20T08:10:10;101406.59;;;19.31;67.27
29433;BME280;16405;53.964;13.448;2022-09-20T08:12:45;101403.22;;;20.82;62.58
29433;BME280;16405;53.964;13.448;2022-09-20T08:15:59;101413.91;;;21.27;60.62
29433;BME280;16405;53.964;13.448;2022-09-20T08:18:06;101418.00;;;22.29;59.08
29433;BME280;16405;53.964;13.448;2022-09-20T08:20:45;101424.00;;;21.89;58.39
29433;BME280;16405;53.964;13.448;2022-09-20T08:23:32;101423.00;;;22.44;57.12
29433;BME280;16405;53.964;13.448;2022-09-20T08:26:11;101425.88;;;22.31;57.08
29433;BME280;16405;53.964;13.448;2022-09-20T08:28:45;101425.19;;;22.29;56.74
29433;BME280;16405;53.964;13.448;2022-09-20T08:31:25;101430.41;;;22.30;56.17
29433;BME280;16405;53.964;13.448;2022-09-20T08:33:52;101427.50;;;22.34;56.60
29433;BME280;16405;53.964;13.448;2022-09-20T08:36:27;101434.13;;;22.60;56.13
29433;BME280;16405;53.964;13.448;2022-09-20T08:38:53;101441.59;;;22.57;57.27
29433;BME280;16405;53.964;13.448;2022-09-20T08:42:34;101433.50;;;21.39;57.39
29433;BME280;16405;53.964;13.448;2022-09-20T08:44:48;101440.25;;;21.10;58.83
29433;BME280;16405;53.964;13.448;2022-09-20T08:47:31;101440.72;;;20.35;60.85
29433;BME280;16405;53.964;13.448;2022-09-20T08:50:09;101439.00;;;20.81;59.93
29433;BME280;16405;53.964;13.448;2022-09-20T08:52:48;101440.94;;;21.01;59.72
29433;BME280;16405;53.964;13.448;2022-09-20T08:55:29;101439.28;;;20.89;59.70
29433;BME280;16405;53.964;13.448;2022-09-20T08:58:35;101438.69;;;20.50;59.98
29433;BME280;16405;53.964;13.448;2022-09-20T09:01:05;101448.94;;;20.56;61.20
29433;BME280;16405;53.964;13.448;2022-09-20T09:03:49;101441.31;;;20.85;61.42
29433;BME280;16405;53.964;13.448;2022-09-20T09:06:26;101448.25;;;20.65;61.45
29433;BME280;16405;53.964;13.448;2022-09-20T09:09:00;101442.28;;;20.26;63.44
29433;BME280;16405;53.964;13.448;2022-09-20T09:11:26;101435.13;;;19.92;63.74
29433;BME280;16405;53.964;13.448;2022-09-20T09:14:06;101432.06;;;18.73;64.73
29433;BME280;16405;53.964;13.448;2022-09-20T09:16:57;101439.97;;;17.40;67.98
29433;BME280;16405;53.964;13.448;2022-09-20T09:19:58;101437.13;;;16.57;69.74
29433;BME280;16405;53.964;13.448;2022-09-20T09:23:07;101440.97;;;16.07;71.12
29433;BME280;16405;53.964;13.448;2022-09-20T09:25:38;101442.56;;;15.63;73.58
29433;BME280;16405;53.964;13.448;2022-09-20T09:28:14;101439.22;;;15.28;74.87
29433;BME280;16405;53.964;13.448;2022-09-20T09:33:45;101440.72;;;15.00;76.46
29433;BME280;16405;53.964;13.448;2022-09-20T09:36:29;101434.66;;;14.65;77.15
29433;BME280;16405;53.964;13.448;2022-09-20T09:39:32;101441.03;;;14.61;78.96
29433;BME280;16405;53.964;13.448;2022-09-20T09:42:24;101445.53;;;14.76;79.53
29433;BME280;16405;53.964;13.448;2022-09-20T09:45:36;101452.84;;;15.53;79.82
29433;BME280;16405;53.964;13.448;2022-09-20T09:48:46;101446.69;;;16.45;77.50
29433;BME280;16405;53.964;13.448;2022-09-20T09:51:31;101450.56;;;16.98;76.52
29433;BME280;16405;53.964;13.448;2022-09-20T09:54:06;101449.81;;;17.11;72.64
29433;BME280;16405;53.964;13.448;2022-09-20T10:00:34;101436.66;;;16.65;73.47
29433;BME280;16405;53.964;13.448;2022-09-20T10:07:16;101444.59;;;15.26;75.78
29433;BME280;16405;53.964;13.448;2022-09-20T10:19:45;101449.97;;;14.23;82.46
29433;BME280;16405;53.964;13.448;2022-09-20T10:29:04;101468.78;;;14.71;84.20
29433;BME280;16405;53.964;13.448;2022-09-20T10:38:19;101455.06;;;14.45;83.98
29433;BME280;16405;53.964;13.448;2022-09-20T11:00:59;101476.63;;;14.72;86.62
29433;BME280;16405;53.964;13.448;2022-09-20T11:03:54;101474.19;;;14.85;83.63
29433;BME280;16405;53.964;13.448;2022-09-20T11:09:06;101471.97;;;15.27;79.90
29433;BME280;16405;53.964;13.448;2022-09-20T11:11:48;101474.31;;;15.33;80.49
29433;BME280;16405;53.964;13.448;2022-09-20T11:14:37;101464.38;;;15.21;77.82
29433;BME280;16405;53.964;13.448;2022-09-20T11:17:16;101468.56;;;15.25;76.65
29433;BME280;16405;53.964;13.448;2022-09-20T11:26:09;101498.75;;;15.22;80.01
29433;BME280;16405;53.964;13.448;2022-09-20T11:28:51;101498.84;;;14.87;80.01
29433;BME280;16405;53.964;13.448;2022-09-20T11:31:29;101478.59;;;14.51;74.79
29433;BME280;16405;53.964;13.448;2022-09-20T11:34:44;101478.72;;;13.58;73.01
29433;BME280;16405;53.964;13.448;2022-09-20T11:37:04;101480.78;;;12.93;76.83
29433;BME280;16405;53.964;13.448;2022-09-20T11:39:53;101496.09;;;12.66;82.88
29433;BME280;16405;53.964;13.448;2022-09-20T11:42:38;101492.38;;;12.49;86.48
29433;BME280;16405;53.964;13.448;2022-09-20T11:45:09;101501.41;;;12.44;87.97
29433;BME280;16405;53.964;13.448;2022-09-20T11:47:57;101517.38;;;12.41;88.82
29433;BME280;16405;53.964;13.448;2022-09-20T11:56:57;101524.69;;;12.34;90.69
29433;BME280;16405;53.964;13.448;2022-09-20T11:59:36;101532.06;;;12.26;90.07
29433;BME280;16405;53.964;13.448;2022-09-20T12:04:49;101533.66;;;12.30;93.45
29433;BME280;16405;53.964;13.448;2022-09-20T12:07:38;101535.84;;;12.20;93.93
29433;BME280;16405;53.964;13.448;2022-09-20T12:10:06;101534.72;;;12.26;96.63
29433;BME280;16405;53.964;13.448;2022-09-20T12:12:45;101534.09;;;12.41;96.20
29433;BME280;16405;53.964;13.448;2022-09-20T12:15:29;101540.84;;;12.48;95.20
29433;BME280;16405;53.964;13.448;2022-09-20T12:28:59;101536.66;;;13.25;96.15
29433;BME280;16405;53.964;13.448;2022-09-20T12:39:39;101539.16;;;13.86;89.81
29433;BME280;16405;53.964;13.448;2022-09-20T12:42:36;101548.88;;;14.05;87.99
29433;BME280;16405;53.964;13.448;2022-09-20T12:45:31;101534.81;;;14.22;84.82
29433;BME280;16405;53.964;13.448;2022-09-20T12:47:59;101548.63;;;14.46;85.79
29433;BME280;16405;53.964;13.448;2022-09-20T12:50:26;101531.59;;;14.51;81.79
29433;BME280;16405;53.964;13.448;2022-09-20T12:53:16;101542.50;;;14.45;82.17
29433;BME280;16405;53.964;13.448;2022-09-20T12:56:03;101547.00;;;14.43;82.25
29433;BME280;16405;53.964;13.448;2022-09-20T12:58:51;101542.25;;;14.32;81.83
29433;BME280;16405;53.964;13.448;2022-09-20T13:06:35;101536.16;;;14.67;85.62
29433;BME280;16405;53.964;13.448;2022-09-20T13:09:04;101532.22;;;14.74;83.76
29433;BME280;16405;53.964;13.448;2022-09-20T13:12:11;101532.53;;;14.85;81.00
29433;BME280;16405;53.964;13.448;2022-09-20T13:14:42;101537.66;;;15.06;83.29
29433;BME280;16405;53.964;13.448;2022-09-20T13:17:52;101540.00;;;15.12;79.15
29433;BME280;16405;53.964;13.448;2022-09-20T13:20:31;101531.31;;;14.92;77.03
29433;BME280;16405;53.964;13.448;2022-09-20T13:23:14;101539.31;;;14.91;75.75
29433;BME280;16405;53.964;13.448;2022-09-20T13:25:54;101538.69;;;14.86;76.24
29433;BME280;16405;53.964;13.448;2022-09-20T13:28:39;101548.13;;;14.91;76.32
29433;BME280;16405;53.964;13.448;2022-09-20T13:31:27;101549.31;;;15.03;73.89
29433;BME280;16405;53.964;13.448;2022-09-20T13:33:53;101556.34;;;15.20;73.82
29433;BME280;16405;53.964;13.448;2022-09-20T13:36:27;101557.00;;;15.41;74.92
29433;BME280;16405;53.964;13.448;2022-09-20T13:38:57;101550.28;;;15.67;76.28
29433;BME280;16405;53.964;13.448;2022-09-20T13:41:29;101561.63;;;15.87;75.89
29433;BME280;16405;53.964;13.448;2022-09-20T13:43:57;101556.31;;;15.87;75.86
29433;BME280;16405;53.964;13.448;2022-09-20T13:46:41;101553.66;;;15.87;72.72
29433;BME280;16405;53.964;13.448;2022-09-20T13:49:17;101562.56;;;16.02;74.78
29433;BME280;16405;53.964;13.448;2022-09-20T13:51:55;101567.38;;;16.11;74.50
29433;BME280;16405;53.964;13.448;2022-09-20T13:54:27;101565.59;;;16.11;73.68
29433;BME280;16405;53.964;13.448;2022-09-20T13:57:04;101566.41;;;15.64;71.32
29433;BME280;16405;53.964;13.448;2022-09-20T13:59:45;101565.00;;;15.24;72.31
29433;BME280;16405;53.964;13.448;2022-09-20T14:02:33;101566.28;;;15.16;73.85
29433;BME280;16405;53.964;13.448;2022-09-20T14:05:03;101574.81;;;15.06;74.26
29433;BME280;16405;53.964;13.448;2022-09-20T14:07:30;101577.78;;;14.82;74.07
29433;BME280;16405;53.964;13.448;2022-09-20T14:11:11;101577.72;;;14.47;74.93
29433;BME280;16405;53.964;13.448;2022-09-20T14:17:06;101582.00;;;14.13;79.50
29433;BME280;16405;53.964;13.448;2022-09-20T14:28:47;101593.09;;;14.22;78.01
29433;BME280;16405;53.964;13.448;2022-09-20T14:31:23;101599.22;;;14.41;80.18
29433;BME280;16405;53.964;13.448;2022-09-20T14:33:59;101590.59;;;14.55;78.65
29433;BME280;16405;53.964;13.448;2022-09-20T14:36:28;101598.75;;;14.50;77.31
29433;BME280;16405;53.964;13.448;2022-09-20T14:39:03;101601.53;;;14.30;76.70
29433;BME280;16405;53.964;13.448;2022-09-20T14:41:35;101598.22;;;14.25;77.16
29433;BME280;16405;53.964;13.448;2022-09-20T14:44:03;101602.31;;;14.32;75.51
29433;BME280;16405;53.964;13.448;2022-09-20T14:46:36;101603.84;;;14.55;75.52
29433;BME280;16405;53.964;13.448;2022-09-20T14:57:34;101607.53;;;14.33;75.11
29433;BME280;16405;53.964;13.448;2022-09-20T15:00:09;101605.38;;;14.23;76.38
29433;BME280;16405;53.964;13.448;2022-09-20T15:02:36;101611.13;;;13.94;77.04
29433;BME280;16405;53.964;13.448;2022-09-20T15:05:15;101614.72;;;13.93;77.60
29433;BME280;16405;53.964;13.448;2022-09-20T15:07:41;101614.13;;;13.68;78.12
29433;BME280;16405;53.964;13.448;2022-09-20T15:10:12;101607.97;;;13.67;79.46
29433;BME280;16405;53.964;13.448;2022-09-20T15:12:40;101613.22;;;13.88;79.18
29433;BME280;16405;53.964;13.448;2022-09-20T15:15:12;101610.91;;;13.99;79.30
29433;BME280;16405;53.964;13.448;2022-09-20T15:17:45;101615.56;;;14.13;78.84
29433;BME280;16405;53.964;13.448;2022-09-20T15:20:20;101622.22;;;14.22;79.30
29433;BME280;16405;53.964;13.448;2022-09-20T15:22:48;101623.66;;;14.10;78.70
29433;BME280;16405;53.964;13.448;2022-09-20T15:25:18;101621.56;;;14.16;78.89
29433;BME280;16405;53.964;13.448;2022-09-20T15:27:46;101627.44;;;14.23;79.67
29433;BME280;16405;53.964;13.448;2022-09-20T15:30:16;101635.38;;;14.42;80.19
29433;BME280;16405;53.964;13.448;2022-09-20T15:32:45;101634.06;;;14.51;78.02
29433;BME280;16405;53.964;13.448;2022-09-20T15:35:11;101640.91;;;14.56;78.59
29433;BME280;16405;53.964;13.448;2022-09-20T15:37:39;101640.91;;;14.56;76.45
29433;BME280;16405;53.964;13.448;2022-09-20T15:40:06;101633.16;;;14.33;73.96
29433;BME280;16405;53.964;13.448;2022-09-20T15:42:33;101641.75;;;14.38;74.86
29433;BME280;16405;53.964;13.448;2022-09-20T15:45:08;101639.59;;;14.27;75.90
29433;BME280;16405;53.964;13.448;2022-09-20T15:47:38;101643.63;;;14.17;76.46
29433;BME280;16405;53.964;13.448;2022-09-20T15:50:06;101645.72;;;14.10;77.01
29433;BME280;16405;53.964;13.448;2022-09-20T15:52:35;101654.34;;;14.14;77.70
29433;BME280;16405;53.964;13.448;2022-09-20T15:55:04;101647.72;;;14.24;78.66
29433;BME280;16405;53.964;13.448;2022-09-20T15:57:33;101642.41;;;14.24;78.53
29433;BME280;16405;53.964;13.448;2022-09-20T16:00:00;101639.81;;;14.23;78.50
29433;BME280;16405;53.964;13.448;2022-09-20T16:02:26;101655.88;;;14.39;78.64
29433;BME280;16405;53.964;13.448;2022-09-20T16:04:55;101650.69;;;14.16;77.84
29433;BME280;16405;53.964;13.448;2022-09-20T16:07:24;101649.84;;;14.16;77.86
29433;BME280;16405;53.964;13.448;2022-09-20T16:09:54;101656.94;;;14.15;78.86
29433;BME280;16405;53.964;13.448;2022-09-20T16:12:22;101659.31;;;14.03;78.45
29433;BME280;16405;53.964;13.448;2022-09-20T16:14:51;101660.59;;;14.13;80.37
29433;BME280;16405;53.964;13.448;2022-09-20T16:17:17;101657.94;;;13.94;80.18
29433;BME280;16405;53.964;13.448;2022-09-20T16:19:43;101657.78;;;13.97;81.43
29433;BME280;16405;53.964;13.448;2022-09-20T16:22:13;101661.66;;;13.90;82.10
29433;BME280;16405;53.964;13.448;2022-09-20T16:24:43;101661.81;;;13.87;82.21
29433;BME280;16405;53.964;13.448;2022-09-20T16:27:09;101658.50;;;13.82;81.84
29433;BME280;16405;53.964;13.448;2022-09-20T16:29:38;101664.47;;;13.66;82.32
29433;BME280;16405;53.964;13.448;2022-09-20T16:32:11;101668.53;;;13.54;82.33
29433;BME280;16405;53.964;13.448;2022-09-20T16:34:40;101663.97;;;13.38;83.71
29433;BME280;16405;53.964;13.448;2022-09-20T16:37:16;101675.22;;;13.43;84.27
29433;BME280;16405;53.964;13.448;2022-09-20T16:39:42;101674.69;;;13.34;84.06
29433;BME280;16405;53.964;13.448;2022-09-20T16:42:10;101681.28;;;13.24;84.85
29433;BME280;16405;53.964;13.448;2022-09-20T16:44:50;101687.00;;;13.13;85.39
29433;BME280;16405;53.964;13.448;2022-09-20T16:47:17;101696.59;;;13.16;86.29
29433;BME280;16405;53.964;13.448;2022-09-20T16:49:47;101694.75;;;13.18;86.41
29433;BME280;16405;53.964;13.448;2022-09-20T16:52:13;101695.50;;;13.22;86.21
29433;BME280;16405;53.964;13.448;2022-09-20T16:54:39;101702.78;;;13.15;87.31
29433;BME280;16405;53.964;13.448;2022-09-20T16:57:05;101705.59;;;13.12;87.89
29433;BME280;16405;53.964;13.448;2022-09-20T16:59:31;101712.06;;;13.05;88.99
29433;BME280;16405;53.964;13.448;2022-09-20T17:01:56;101710.47;;;13.01;89.75
29433;BME280;16405;53.964;13.448;2022-09-20T17:04:25;101714.94;;;12.99;89.30
29433;BME280;16405;53.964;13.448;2022-09-20T17:06:51;101711.50;;;12.97;90.13
29433;BME280;16405;53.964;13.448;2022-09-20T17:09:17;101720.34;;;12.96;90.23
29433;BME280;16405;53.964;13.448;2022-09-20T17:11:47;101724.84;;;12.93;90.66
29433;BME280;16405;53.964;13.448;2022-09-20T17:14:18;101731.91;;;12.93;91.32
29433;BME280;16405;53.964;13.448;2022-09-20T17:16:46;101732.75;;;12.93;91.84
29433;BME280;16405;53.964;13.448;2022-09-20T17:19:15;101736.47;;;12.89;91.97
29433;BME280;16405;53.964;13.448;2022-09-20T17:21:51;101742.84;;;12.84;91.43
29433;BME280;16405;53.964;13.448;2022-09-20T17:24:43;101742.25;;;12.77;91.61
29433;BME280;16405;53.964;13.448;2022-09-20T17:27:42;101739.28;;;12.63;91.07
29433;BME280;16405;53.964;13.448;2022-09-20T17:30:11;101742.22;;;12.55;91.32
29433;BME280;16405;53.964;13.448;2022-09-20T17:33:03;101738.25;;;12.43;91.14
29433;BME280;16405;53.964;13.448;2022-09-20T17:35:54;101743.22;;;12.29;92.81
29433;BME280;16405;53.964;13.448;2022-09-20T17:38:20;101746.25;;;12.18;93.85
29433;BME280;16405;53.964;13.448;2022-09-20T17:41:01;101748.38;;;12.08;93.67
29433;BME280;16405;53.964;13.448;2022-09-20T17:43:28;101748.75;;;11.98;94.25
29433;BME280;16405;53.964;13.448;2022-09-20T17:46:23;101751.75;;;11.87;94.47
29433;BME280;16405;53.964;13.448;2022-09-20T17:52:33;101763.09;;;11.64;94.97
29433;BME280;16405;53.964;13.448;2022-09-20T17:54:59;101771.28;;;11.56;95.36
29433;BME280;16405;53.964;13.448;2022-09-20T17:57:32;101772.66;;;11.41;94.83
29433;BME280;16405;53.964;13.448;2022-09-20T18:00:13;101776.50;;;11.31;93.97
29433;BME280;16405;53.964;13.448;2022-09-20T18:02:38;101782.09;;;11.22;94.28
29433;BME280;16405;53.964;13.448;2022-09-20T18:05:34;101782.56;;;11.08;94.87
29433;BME280;16405;53.964;13.448;2022-09-20T18:11:10;101784.97;;;10.86;95.99
29433;BME280;16405;53.964;13.448;2022-09-20T18:13:49;101784.56;;;10.72;96.50
29433;BME280;16405;53.964;13.448;2022-09-20T18:16:31;101780.31;;;10.66;97.04
29433;BME280;16405;53.964;13.448;2022-09-20T18:19:11;101786.72;;;10.57;98.00
29433;BME280;16405;53.964;13.448;2022-09-20T18:21:38;101788.66;;;10.52;98.14
29433;BME280;16405;53.964;13.448;2022-09-20T18:24:29;101798.44;;;10.47;98.27
29433;BME280;16405;53.964;13.448;2022-09-20T18:29:34;101808.41;;;10.36;98.92
29433;BME280;16405;53.964;13.448;2022-09-20T18:32:01;101801.56;;;10.29;98.87
29433;BME280;16405;53.964;13.448;2022-09-20T18:34:38;101809.53;;;10.25;98.78
29433;BME280;16405;53.964;13.448;2022-09-20T18:37:03;101804.69;;;10.10;99.03
29433;BME280;16405;53.964;13.448;2022-09-20T18:39:39;101808.53;;;9.98;99.27
29433;BME280;16405;53.964;13.448;2022-09-20T18:42:08;101811.25;;;9.95;99.91
29433;BME280;16405;53.964;13.448;2022-09-20T18:44:34;101808.03;;;9.84;100.00
29433;BME280;16405;53.964;13.448;2022-09-20T18:47:10;101816.06;;;9.79;100.00